Time;durP1;ratioP1;P1;durP2;ratioP2;P2;SDS_P1;SDS_P2;PMS_P1;PMS_P2;Temp;Humidity;BMP_temperature;BMP_pressure;BME280_temperature;BME280_humidity;BME280_pressure;Samples;Min_cycle;Max_cycle;Signal;HPM_P1;HPM_P2
2024/02/03 00:03:37;;;;;;;24.20;11.50;;;;;;;6.69;100.00;100285.24;218961;1270;139717;-90
2024/02/03 00:08:38;;;;;;;21.00;11.30;;;;;;;6.75;100.00;100270.33;219787;1268;140071;-84
2024/02/03 00:13:38;;;;;;;21.90;10.40;;;;;;;6.80;100.00;100266.30;219330;1268;139814;-86
2024/02/03 00:18:39;;;;;;;20.90;10.40;;;;;;;6.83;100.00;100275.98;219975;1269;139726;-88
2024/02/03 00:23:39;;;;;;;18.60;10.10;;;;;;;6.88;100.00;100278.05;219360;1268;139844;-88
2024/02/03 00:28:40;;;;;;;19.90;10.00;;;;;;;6.92;100.00;100280.40;220585;1267;97927;-87
2024/02/03 00:33:40;;;;;;;16.20;8.30;;;;;;;6.95;100.00;100273.14;220454;1264;139945;-88
2024/02/03 00:38:41;;;;;;;16.10;8.30;;;;;;;6.99;100.00;100280.48;219682;1264;140354;-89
2024/02/03 00:43:41;;;;;;;15.40;7.30;;;;;;;7.03;100.00;100286.45;219157;1269;139541;-90
2024/02/03 00:48:42;;;;;;;15.70;7.80;;;;;;;7.07;100.00;100281.46;219843;1265;139320;-89
2024/02/03 00:53:43;;;;;;;16.80;7.80;;;;;;;7.11;100.00;100281.39;219233;1269;139588;-87
2024/02/03 00:58:43;;;;;;;16.70;7.60;;;;;;;7.14;100.00;100278.17;219841;1268;97927;-88
2024/02/03 01:03:43;;;;;;;14.60;7.40;;;;;;;7.17;100.00;100282.94;219259;1269;139493;-86
2024/02/03 01:08:44;;;;;;;14.70;7.30;;;;;;;7.19;100.00;100281.89;219586;1271;138614;-90
2024/02/03 01:13:45;;;;;;;16.80;7.90;;;;;;;7.22;100.00;100280.16;219314;1264;139812;-89
2024/02/03 01:18:45;;;;;;;14.10;7.30;;;;;;;7.25;100.00;100287.42;219669;1264;139227;-90
2024/02/03 01:23:47;;;;;;;15.00;6.50;;;;;;;7.27;100.00;100283.79;219301;1267;139681;-89
2024/02/03 01:28:47;;;;;;;13.00;6.10;;;;;;;7.29;100.00;100287.11;220377;1268;105824;-87
2024/02/03 01:33:48;;;;;;;16.10;7.00;;;;;;;7.31;100.00;100289.11;220898;1264;138677;-89
2024/02/03 01:38:51;;;;;;;16.20;7.10;;;;;;;7.32;100.00;100284.77;219908;1269;139082;-90
2024/02/03 01:43:52;;;;;;;14.80;6.60;;;;;;;7.35;100.00;100284.98;219201;1268;139974;-89
2024/02/03 01:48:53;;;;;;;14.70;7.00;;;;;;;7.37;100.00;100281.73;219989;1264;138959;-87
2024/02/03 01:53:55;;;;;;;14.30;6.90;;;;;;;7.39;100.00;100283.50;219368;1269;139486;-89
2024/02/03 01:58:56;;;;;;;12.20;6.10;;;;;;;7.43;100.00;100289.67;220104;1264;99023;-88
2024/02/03 02:03:56;;;;;;;15.30;7.80;;;;;;;7.45;100.00;100296.06;219252;1267;139728;-90
2024/02/03 02:08:57;;;;;;;12.60;6.30;;;;;;;7.48;100.00;100299.98;220021;1264;138780;-92
2024/02/03 02:13:58;;;;;;;14.20;6.40;;;;;;;7.50;100.00;100293.83;219428;1264;140172;-88
2024/02/03 02:18:58;;;;;;;13.60;6.60;;;;;;;7.54;100.00;100288.04;219858;1264;138876;-87
2024/02/03 02:23:59;;;;;;;14.40;7.20;;;;;;;7.57;100.00;100288.24;219508;1264;139593;-87
2024/02/03 02:28:59;;;;;;;13.40;7.00;;;;;;;7.59;100.00;100281.73;219989;1264;137741;-85
2024/02/03 02:34:00;;;;;;;13.40;7.00;;;;;;;7.63;100.00;100274.37;220799;1269;138655;-90
2024/02/03 02:39:00;;;;;;;13.10;6.70;;;;;;;7.67;100.00;100280.40;219684;1264;138676;-90
2024/02/03 02:44:00;;;;;;;11.10;5.60;;;;;;;7.71;100.00;100276.56;219279;1264;139700;-89
2024/02/03 02:49:01;;;;;;;11.10;6.00;;;;;;;7.74;100.00;100269.60;219953;1269;138797;-91
2024/02/03 02:54:02;;;;;;;13.60;6.20;;;;;;;7.77;100.00;100268.40;219284;1264;139865;-89
2024/02/03 02:59:02;;;;;;;10.80;5.30;;;;;;;7.80;100.00;100270.80;219697;1270;139220;-91
2024/02/03 03:04:03;;;;;;;11.80;5.40;;;;;;;7.82;100.00;100277.49;219403;1270;139657;-86
2024/02/03 03:09:04;;;;;;;11.10;5.80;;;;;;;7.84;100.00;100282.01;219798;1264;138692;-88
2024/02/03 03:14:05;;;;;;;11.20;5.20;;;;;;;7.87;100.00;100280.34;219371;1266;139615;-90
2024/02/03 03:19:06;;;;;;;10.20;5.10;;;;;;;7.90;100.00;100283.59;219635;1269;139261;-89
2024/02/03 03:24:07;;;;;;;9.90;5.10;;;;;;;7.92;100.00;100282.69;219084;1264;139644;-89
2024/02/03 03:29:07;;;;;;;10.80;5.40;;;;;;;7.93;100.00;100281.25;219610;1264;138779;-87
2024/02/03 03:34:08;;;;;;;12.40;5.20;;;;;;;7.96;100.00;100280.58;221253;1264;139866;-88
2024/02/03 03:39:08;;;;;;;11.30;5.60;;;;;;;7.98;100.00;100287.37;219918;1267;138820;-89
2024/02/03 03:44:09;;;;;;;11.00;5.30;;;;;;;8.01;100.00;100284.60;219248;1264;139492;-89
2024/02/03 03:49:09;;;;;;;10.40;4.90;;;;;;;8.04;100.00;100284.66;219950;1264;140241;-87
2024/02/03 03:54:10;;;;;;;12.60;5.70;;;;;;;8.07;100.00;100297.07;219396;1264;140194;-90
2024/02/03 03:59:11;;;;;;;11.60;5.60;;;;;;;8.09;100.00;100301.49;219767;1264;138809;-90
2024/02/03 04:04:11;;;;;;;12.60;6.00;;;;;;;8.10;100.00;100292.91;219596;1264;139934;-89
2024/02/03 04:09:13;;;;;;;14.80;7.20;;;;;;;8.13;100.00;100292.81;219905;1264;139459;-89
2024/02/03 04:14:14;;;;;;;13.20;6.70;;;;;;;8.14;100.00;100291.74;219283;1264;139842;-91
2024/02/03 04:19:14;;;;;;;14.90;7.70;;;;;;;8.17;100.00;100297.59;219807;1264;139329;-89
2024/02/03 04:24:15;;;;;;;14.80;7.50;;;;;;;8.19;100.00;100297.78;219468;1269;140241;-89
2024/02/03 04:29:15;;;;;;;14.70;7.90;;;;;;;8.20;100.00;100293.29;219788;1266;139028;-88
2024/02/03 04:34:19;;;;;;;14.90;7.70;;;;;;;8.22;100.00;100297.16;220979;1264;140731;-92
2024/02/03 04:39:19;;;;;;;14.60;7.40;;;;;;;8.23;100.00;100294.38;219874;1264;138733;-89
2024/02/03 04:44:20;;;;;;;16.40;8.30;;;;;;;8.23;100.00;100296.32;219453;1263;139697;-89
2024/02/03 04:49:20;;;;;;;14.70;7.60;;;;;;;8.26;100.00;100298.88;219766;1267;139018;-91
2024/02/03 04:54:21;;;;;;;14.10;7.40;;;;;;;8.27;100.00;100296.96;219107;1264;140346;-89
2024/02/03 04:59:21;;;;;;;15.40;7.60;;;;;;;8.28;100.00;100298.37;219841;1267;139486;-90
2024/02/03 05:04:22;;;;;;;18.00;8.60;;;;;;;8.29;100.00;100298.85;219184;1264;139993;-91
2024/02/03 05:09:23;;;;;;;14.90;7.90;;;;;;;8.30;100.00;100295.17;220079;1264;138637;-89
2024/02/03 05:14:23;;;;;;;16.80;8.20;;;;;;;8.31;100.00;100305.55;219468;1264;139828;-90
2024/02/03 05:19:25;;;;;;;14.70;7.90;;;;;;;8.32;100.00;100309.79;219804;1267;138775;-90
2024/02/03 05:24:26;;;;;;;16.60;8.00;;;;;;;8.33;100.00;100298.14;219238;1264;140831;-88
2024/02/03 05:29:26;;;;;;;18.50;8.40;;;;;;;8.36;100.00;100289.27;219564;1264;138958;-87
2024/02/03 05:34:27;;;;;;;15.60;8.10;;;;;;;8.39;100.00;100285.34;220954;1264;139726;-87
2024/02/03 05:39:27;;;;;;;15.60;8.20;;;;;;;8.41;100.00;100280.65;219647;1264;138883;-90
2024/02/03 05:44:27;;;;;;;18.80;8.10;;;;;;;8.43;100.00;100281.79;219230;1264;139596;-90
2024/02/03 05:49:28;;;;;;;16.70;8.10;;;;;;;8.46;100.00;100278.30;219766;1264;138975;-92
2024/02/03 05:54:28;;;;;;;13.90;7.00;;;;;;;8.47;100.00;100281.46;219220;1264;140168;-90
2024/02/03 05:59:29;;;;;;;16.00;8.30;;;;;;;8.48;100.00;100279.67;219853;1267;139070;-88
2024/02/03 06:04:29;;;;;;;15.90;8.00;;;;;;;8.51;100.00;100274.86;219415;1264;139638;-86
2024/02/03 06:09:30;;;;;;;15.50;7.50;;;;;;;8.54;100.00;100281.90;219901;1265;138720;-85
2024/02/03 06:14:32;;;;;;;15.30;7.30;;;;;;;8.56;100.00;100285.07;219258;1264;140161;-87
2024/02/03 06:19:32;;;;;;;15.90;8.40;;;;;;;8.58;100.00;100285.27;219702;1264;139579;-89
2024/02/03 06:24:33;;;;;;;18.40;7.80;;;;;;;8.60;100.00;100293.67;218959;1264;140228;-91
2024/02/03 06:29:33;;;;;;;16.50;8.10;;;;;;;8.61;100.00;100290.33;219655;1265;140620;-89
2024/02/03 06:34:34;;;;;;;14.40;7.80;;;;;;;8.63;100.00;100284.40;220812;1264;139842;-90
2024/02/03 06:39:34;;;;;;;16.10;7.90;;;;;;;8.65;100.00;100288.66;219849;1264;138693;-86
2024/02/03 06:44:35;;;;;;;14.20;7.60;;;;;;;8.68;100.00;100291.16;219460;1264;140079;-88
2024/02/03 06:49:35;;;;;;;12.80;7.30;;;;;;;8.71;100.00;100296.98;219935;1264;138789;-87
2024/02/03 06:54:35;;;;;;;12.90;6.70;;;;;;;8.71;100.00;100304.98;219364;1264;140029;-83
2024/02/03 06:59:36;;;;;;;12.50;6.40;;;;;;;8.72;100.00;100307.98;219910;1267;138951;-86
2024/02/03 07:04:36;;;;;;;14.60;7.10;;;;;;;8.70;100.00;100308.04;219520;1266;140116;-86
2024/02/03 07:09:37;;;;;;;13.00;5.90;;;;;;;8.70;100.00;100311.40;220000;1264;138744;-86
2024/02/03 07:14:37;;;;;;;13.20;6.60;;;;;;;8.69;100.00;100330.61;219170;1264;140086;-85
2024/02/03 07:19:38;;;;;;;12.30;6.30;;;;;;;8.70;100.00;100321.60;219628;1265;139437;-85
2024/02/03 07:24:39;;;;;;;15.80;7.50;;;;;;;8.72;100.00;100317.80;219403;1264;139600;-85
2024/02/03 07:29:41;;;;;;;13.30;6.20;;;;;;;8.76;100.00;100314.73;219773;1266;139891;-87
2024/02/03 07:34:41;;;;;;;13.90;6.60;;;;;;;8.81;100.00;100319.50;220705;1265;140108;-86
2024/02/03 07:39:42;;;;;;;13.40;6.40;;;;;;;8.85;100.00;100326.39;219986;1263;139392;-87
2024/02/03 07:44:43;;;;;;;13.30;6.30;;;;;;;8.89;100.00;100339.31;219164;1263;139277;-85
2024/02/03 07:49:44;;;;;;;13.90;6.40;;;;;;;8.95;100.00;100342.88;219778;1265;140134;-89
2024/02/03 07:54:44;;;;;;;12.20;6.40;;;;;;;9.02;100.00;100345.71;219327;1263;140356;-88
2024/02/03 07:59:45;;;;;;;12.20;6.50;;;;;;;9.11;100.00;100345.78;219606;1267;139612;-88
2024/02/03 08:04:45;;;;;;;10.80;5.60;;;;;;;9.21;100.00;100354.40;219461;1267;140532;-90
2024/02/03 08:09:45;;;;;;;11.80;5.90;;;;;;;9.29;100.00;100334.44;220014;1264;138848;-88
2024/02/03 08:14:46;;;;;;;10.70;5.60;;;;;;;9.39;100.00;100326.66;219422;1264;139502;-87
2024/02/03 08:19:46;;;;;;;11.60;5.50;;;;;;;9.48;100.00;100328.73;219846;1264;139183;-87
2024/02/03 08:24:47;;;;;;;10.10;4.90;;;;;;;9.58;100.00;100323.08;219283;1264;139581;-88
2024/02/03 08:29:47;;;;;;;9.80;4.70;;;;;;;9.69;100.00;100326.13;219770;1264;139831;-90
2024/02/03 08:34:48;;;;;;;11.60;5.80;;;;;;;9.74;100.00;100330.05;220562;1263;139929;-86
2024/02/03 08:39:48;;;;;;;9.30;5.00;;;;;;;9.79;100.00;100328.92;220119;1265;138616;-87
2024/02/03 08:44:49;;;;;;;9.70;5.10;;;;;;;9.84;100.00;100333.23;219169;1267;139195;-93
2024/02/03 08:49:53;;;;;;;9.70;5.00;;;;;;;9.87;100.00;100333.20;220265;1263;138701;-85
2024/02/03 08:54:54;;;;;;;10.50;5.10;;;;;;;9.92;100.00;100338.37;219871;1264;139351;-85
2024/02/03 08:59:55;;;;;;;8.70;3.80;;;;;;;9.94;100.00;100342.39;219683;1267;139956;-87
2024/02/03 09:04:55;;;;;;;8.60;4.20;;;;;;;9.96;100.00;100341.93;220233;1264;97990;-85
2024/02/03 09:09:56;;;;;;;12.00;4.60;;;;;;;9.97;100.00;100343.70;219589;1267;139802;-87
2024/02/03 09:14:56;;;;;;;9.40;3.90;;;;;;;9.97;100.00;100342.59;219752;1264;138898;-86
2024/02/03 09:19:56;;;;;;;8.40;3.60;;;;;;;9.99;100.00;100338.91;219333;1263;139765;-88
2024/02/03 09:24:57;;;;;;;6.60;2.70;;;;;;;10.00;100.00;100340.42;220127;1264;138939;-86
2024/02/03 09:29:57;;;;;;;6.30;3.00;;;;;;;10.02;100.00;100337.37;219426;1266;139973;-87
2024/02/03 09:34:58;;;;;;;6.00;2.60;;;;;;;10.05;100.00;100336.73;221765;1264;97949;-90
2024/02/03 09:39:58;;;;;;;7.50;2.90;;;;;;;10.16;100.00;100338.20;219716;1266;140779;-87
2024/02/03 09:44:59;;;;;;;6.60;2.70;;;;;;;10.23;100.00;100346.54;220527;1264;139118;-92
2024/02/03 09:50:02;;;;;;;6.10;2.70;;;;;;;10.29;100.00;100343.52;219606;1267;140772;-91
2024/02/03 09:55:04;;;;;;;6.00;2.60;;;;;;;10.37;100.00;100344.95;220083;1265;139765;-89
2024/02/03 10:00:07;;;;;;;5.70;2.50;;;;;;;10.45;100.00;100339.05;219722;1264;140204;-91
2024/02/03 10:05:08;;;;;;;6.60;2.70;;;;;;;10.48;100.00;100341.84;220259;1267;139107;-92
2024/02/03 10:10:10;;;;;;;5.50;2.30;;;;;;;10.49;100.00;100332.88;219805;1266;140735;-93
2024/02/03 10:15:10;;;;;;;4.80;2.00;;;;;;;10.56;100.00;100325.02;220217;1266;138899;-90
2024/02/03 10:20:11;;;;;;;3.20;1.60;;;;;;;10.71;100.00;100319.65;219677;1267;140390;-88
2024/02/03 10:25:12;;;;;;;4.80;2.10;;;;;;;10.89;100.00;100319.88;220189;1267;271928;-92
2024/02/03 10:30:21;;;;;;;4.50;1.90;;;;;;;11.05;100.00;100326.14;219887;1264;140453;-91
2024/02/03 10:35:21;;;;;;;3.50;1.90;;;;;;;11.22;100.00;100326.58;220819;1264;139221;-91
2024/02/03 10:40:28;;;;;;;3.80;1.50;;;;;;;11.32;100.00;100322.78;220342;1264;139815;-91
2024/02/03 10:45:33;;;;;;;3.80;1.80;;;;;;;11.36;100.00;100316.42;220357;1266;138785;-89
2024/02/03 10:50:43;;;;;;;3.90;1.40;;;;;;;11.37;100.00;100325.80;219685;1263;140459;-90
2024/02/03 10:55:54;;;;;;;4.40;1.70;;;;;;;11.39;100.00;100326.14;220108;1267;140035;-92
2024/02/03 11:00:57;;;;;;;5.30;2.30;;;;;;;11.45;100.00;100335.61;219800;1267;139949;-92
2024/02/03 11:05:57;;;;;;;16.10;5.80;;;;;;;11.49;100.00;100334.08;220446;1264;139691;-94
2024/02/03 11:10:58;;;;;;;6.30;2.60;;;;;;;11.57;100.00;100345.46;219941;1265;139989;-88
2024/02/03 11:16:00;;;;;;;5.50;2.20;;;;;;;11.69;100.00;100348.95;220056;1266;138664;-90
2024/02/03 11:21:07;;;;;;;5.10;1.80;;;;;;;11.81;100.00;100346.48;220328;1264;141520;-90
2024/02/03 11:26:09;;;;;;;4.70;2.10;;;;;;;11.86;100.00;100340.20;220790;1266;139424;-91
2024/02/03 11:31:09;;;;;;;2.70;1.70;;;;;;;11.85;100.00;100341.05;219854;1266;139996;-91
2024/02/03 11:36:10;;;;;;;4.20;1.80;;;;;;;11.84;100.00;100346.16;221781;1264;138345;-92
2024/02/03 11:41:11;;;;;;;4.10;1.90;;;;;;;11.80;100.00;100346.15;220858;1268;141690;-92
2024/02/03 11:46:12;;;;;;;5.60;1.80;;;;;;;11.76;100.00;100346.22;221699;1265;97704;-91
2024/02/03 11:51:14;;;;;;;3.60;1.60;;;;;;;11.73;100.00;100345.33;220431;1264;139945;-90
2024/02/03 11:56:15;;;;;;;5.70;1.90;;;;;;;11.72;100.00;100339.49;219832;1266;140072;-91
2024/02/03 12:01:17;;;;;;;5.10;1.90;;;;;;;11.66;100.00;100336.40;219266;1269;140122;-93
2024/02/03 12:06:18;;;;;;;5.80;1.90;;;;;;;11.56;100.00;100332.95;220213;1267;139184;-93
2024/02/03 12:11:19;;;;;;;3.80;1.70;;;;;;;11.49;100.00;100336.58;219545;1266;140181;-91
2024/02/03 12:16:19;;;;;;;4.00;1.80;;;;;;;11.45;100.00;100344.99;219902;1266;98171;-91
2024/02/03 12:21:20;;;;;;;4.50;2.10;;;;;;;11.35;100.00;100337.36;219299;1264;139977;-93
2024/02/03 12:26:20;;;;;;;5.20;2.20;;;;;;;11.26;100.00;100327.86;220254;1268;138939;-93
2024/02/03 12:31:20;;;;;;;7.00;3.10;;;;;;;11.17;100.00;100345.20;220293;1264;140237;-88
2024/02/03 12:36:21;;;;;;;8.10;3.40;;;;;;;11.07;100.00;100344.57;221250;1264;139151;-95
2024/02/03 12:41:22;;;;;;;8.60;3.30;;;;;;;10.96;100.00;100341.58;219697;1266;140018;-92
2024/02/03 12:46:23;;;;;;;8.70;3.90;;;;;;;10.86;100.00;100345.80;220498;1264;97923;-93
2024/02/03 12:51:23;;;;;;;8.30;3.20;;;;;;;10.83;100.00;100342.73;219559;1264;140668;-92
2024/02/03 12:56:24;;;;;;;6.90;2.40;;;;;;;10.82;100.00;100341.69;220543;1264;138895;-95
2024/02/03 13:01:24;;;;;;;5.60;2.50;;;;;;;10.84;100.00;100340.91;219713;1264;140169;-89
2024/02/03 13:06:25;;;;;;;4.90;2.10;;;;;;;10.86;100.00;100348.25;220718;1264;139102;-90
2024/02/03 13:11:25;;;;;;;8.00;2.40;;;;;;;10.87;100.00;100355.19;220016;1263;140388;-92
2024/02/03 13:16:26;;;;;;;5.90;1.90;;;;;;;10.87;100.00;100350.53;220940;1269;107551;-93
2024/02/03 13:21:27;;;;;;;4.80;2.20;;;;;;;10.87;100.00;100351.41;220322;1268;140900;-89
2024/02/03 13:26:28;;;;;;;5.50;2.20;;;;;;;10.90;100.00;100342.93;220455;1265;139270;-92
2024/02/03 13:31:28;;;;;;;4.80;2.10;;;;;;;10.94;100.00;100327.80;219243;1266;140358;-90
2024/02/03 13:36:29;;;;;;;4.00;2.10;;;;;;;11.01;100.00;100331.86;220753;1264;140060;-90
2024/02/03 13:41:29;;;;;;;5.10;2.30;;;;;;;11.10;100.00;100332.23;219201;1266;140401;-90
2024/02/03 13:46:30;;;;;;;4.60;1.70;;;;;;;11.21;100.00;100326.72;219722;1266;97985;-91
2024/02/03 13:51:34;;;;;;;5.40;1.80;;;;;;;11.29;100.00;100329.30;219277;1264;139788;-92
2024/02/03 13:56:34;;;;;;;5.40;1.90;;;;;;;11.36;100.00;100337.45;219568;1267;139424;-92
2024/02/03 14:01:35;;;;;;;7.40;2.50;;;;;;;11.41;100.00;100345.05;219208;1264;140770;-90
2024/02/03 14:06:35;;;;;;;7.40;2.80;;;;;;;11.48;100.00;100352.42;219991;1269;139164;-91
2024/02/03 14:11:35;;;;;;;6.80;2.10;;;;;;;11.53;100.00;100355.13;219861;1269;140284;-90
2024/02/03 14:16:36;;;;;;;7.20;2.30;;;;;;;11.52;100.00;100356.61;219846;1266;99235;-93
2024/02/03 14:21:36;;;;;;;6.90;2.20;;;;;;;11.51;100.00;100355.98;219238;1264;139973;-90
2024/02/03 14:26:37;;;;;;;5.80;2.40;;;;;;;11.46;100.00;100363.81;219983;1268;138872;-89
2024/02/03 14:31:37;;;;;;;5.40;1.80;;;;;;;11.39;100.00;100363.83;219211;1264;141341;-90
2024/02/03 14:36:38;;;;;;;6.20;2.00;;;;;;;11.38;100.00;100368.95;220930;1267;139708;-92
2024/02/03 14:41:38;;;;;;;6.10;2.00;;;;;;;11.34;100.00;100370.98;219299;1266;140087;-91
2024/02/03 14:46:39;;;;;;;9.40;2.40;;;;;;;11.30;100.00;100374.02;219826;1266;97968;-92
2024/02/03 14:51:39;;;;;;;6.80;2.40;;;;;;;11.26;100.00;100347.39;219121;1266;140329;-91
2024/02/03 14:56:40;;;;;;;7.20;2.70;;;;;;;11.23;100.00;100349.08;219903;1265;139704;-91
2024/02/03 15:01:40;;;;;;;5.40;1.90;;;;;;;11.20;100.00;100360.24;219806;1268;140260;-90
2024/02/03 15:06:41;;;;;;;8.40;2.30;;;;;;;11.15;100.00;100358.95;220479;1264;138248;-92
2024/02/03 15:11:42;;;;;;;6.80;2.00;;;;;;;11.10;100.00;100355.84;219697;1266;140793;-91
2024/02/03 15:16:42;;;;;;;6.90;2.30;;;;;;;11.06;100.00;100362.12;220053;1266;99180;-94
2024/02/03 15:21:43;;;;;;;5.80;2.20;;;;;;;11.02;100.00;100365.61;219426;1266;140645;-91
2024/02/03 15:26:43;;;;;;;6.30;2.50;;;;;;;10.97;100.00;100366.83;220237;1266;138990;-89
2024/02/03 15:31:44;;;;;;;5.10;3.10;;;;;;;10.92;100.00;100372.69;219632;1264;140299;-89
2024/02/03 15:36:44;;;;;;;6.90;3.30;;;;;;;10.87;100.00;100369.34;220873;1267;139114;-90
2024/02/03 15:41:45;;;;;;;7.30;3.20;;;;;;;10.82;100.00;100369.46;220393;1264;140124;-91
2024/02/03 15:46:45;;;;;;;8.20;3.10;;;;;;;10.75;100.00;100375.84;220703;1267;97931;-90
2024/02/03 15:51:46;;;;;;;7.40;3.50;;;;;;;10.67;100.00;100384.64;220136;1266;140055;-88
2024/02/03 15:56:46;;;;;;;8.60;3.30;;;;;;;10.60;100.00;100382.61;220944;1264;138575;-90
2024/02/03 16:01:47;;;;;;;8.40;3.10;;;;;;;10.56;100.00;100381.55;220417;1266;140674;-89
2024/02/03 16:06:47;;;;;;;6.60;3.10;;;;;;;10.50;100.00;100375.59;220605;1268;139305;-90
2024/02/03 16:11:48;;;;;;;5.20;2.30;;;;;;;10.44;100.00;100388.58;219602;1266;140412;-92
2024/02/03 16:16:48;;;;;;;5.60;2.50;;;;;;;10.38;100.00;100387.26;220115;1266;97950;-91
2024/02/03 16:21:49;;;;;;;5.60;2.20;;;;;;;10.30;100.00;100379.38;219368;1269;139885;-90
2024/02/03 16:26:50;;;;;;;5.70;2.60;;;;;;;10.22;100.00;100385.58;219983;1269;139383;-91
2024/02/03 16:31:50;;;;;;;6.80;2.90;;;;;;;10.15;100.00;100387.67;219331;1268;140277;-89
2024/02/03 16:36:50;;;;;;;7.50;3.20;;;;;;;10.07;100.00;100392.30;220626;1266;139564;-87
2024/02/03 16:41:51;;;;;;;10.60;4.40;;;;;;;9.99;100.00;100391.53;219224;1269;140677;-90
2024/02/03 16:46:51;;;;;;;9.50;3.00;;;;;;;9.92;100.00;100394.59;219951;1264;98064;-90
2024/02/03 16:51:51;;;;;;;7.20;3.20;;;;;;;9.83;100.00;100392.59;219417;1264;140781;-90
2024/02/03 16:56:52;;;;;;;7.20;3.10;;;;;;;9.76;100.00;100403.17;220090;1264;138606;-87
2024/02/03 17:01:52;;;;;;;10.20;3.20;;;;;;;9.68;100.00;100404.39;219479;1266;140566;-91
2024/02/03 17:06:53;;;;;;;6.60;2.80;;;;;;;9.60;100.00;100403.48;220656;1269;139431;-91
2024/02/03 17:11:53;;;;;;;9.70;3.50;;;;;;;9.50;100.00;100404.11;220024;1268;139915;-93
2024/02/03 17:16:54;;;;;;;8.80;4.40;;;;;;;9.44;100.00;100401.85;220038;1264;99230;-90
2024/02/03 17:21:57;;;;;;;5.50;3.20;;;;;;;9.38;100.00;100391.00;219059;1269;140101;-91
2024/02/03 17:26:58;;;;;;;7.20;3.50;;;;;;;9.31;100.00;100387.75;219833;1267;138728;-92
2024/02/03 17:31:59;;;;;;;7.90;3.50;;;;;;;9.26;100.00;100377.56;219223;1267;140175;-90
2024/02/03 17:36:59;;;;;;;6.80;2.70;;;;;;;9.21;100.00;100379.05;220982;1268;139241;-90
2024/02/03 17:42:00;;;;;;;9.70;3.10;;;;;;;9.16;100.00;100380.93;219720;1268;140142;-89
2024/02/03 17:47:00;;;;;;;9.50;3.00;;;;;;;9.11;100.00;100380.30;220150;1268;138901;-89
2024/02/03 17:52:01;;;;;;;9.80;3.60;;;;;;;9.06;100.00;100378.55;219297;1269;140260;-91
2024/02/03 17:57:01;;;;;;;7.90;3.80;;;;;;;9.01;100.00;100371.66;219946;1266;138578;-91
2024/02/03 18:02:02;;;;;;;7.90;2.80;;;;;;;8.98;100.00;100367.70;219623;1269;139599;-93
2024/02/03 18:07:02;;;;;;;7.40;3.20;;;;;;;8.95;100.00;100362.79;220044;1265;138813;-91
2024/02/03 18:12:03;;;;;;;8.10;3.40;;;;;;;8.91;100.00;100363.82;219398;1267;139712;-90
2024/02/03 18:17:04;;;;;;;8.10;3.60;;;;;;;8.87;100.00;100366.49;220014;1269;138664;-92
2024/02/03 18:22:04;;;;;;;7.20;3.40;;;;;;;8.84;100.00;100365.42;219782;1269;140666;-91
2024/02/03 18:27:05;;;;;;;6.80;3.20;;;;;;;8.82;100.00;100370.08;220325;1264;138556;-90
2024/02/03 18:32:06;;;;;;;7.60;3.30;;;;;;;8.78;100.00;100381.32;219552;1264;140379;-91
2024/02/03 18:37:07;;;;;;;9.70;3.10;;;;;;;8.75;100.00;100384.55;221366;1269;138657;-90
2024/02/03 18:42:08;;;;;;;8.00;3.80;;;;;;;8.75;100.00;100382.38;219785;1265;139965;-92
2024/02/03 18:47:08;;;;;;;8.70;3.50;;;;;;;8.76;100.00;100378.77;220064;1266;141221;-91
2024/02/03 18:52:09;;;;;;;10.30;4.10;;;;;;;8.80;100.00;100382.75;219480;1267;140218;-91
2024/02/03 18:57:09;;;;;;;9.90;3.80;;;;;;;8.85;100.00;100376.34;219798;1269;138794;-94
2024/02/03 19:02:10;;;;;;;8.80;4.10;;;;;;;8.86;100.00;100372.66;219423;1269;139885;-90
2024/02/03 19:07:11;;;;;;;9.80;4.40;;;;;;;8.88;100.00;100356.55;220383;1269;139230;-93
2024/02/03 19:12:11;;;;;;;8.00;4.00;;;;;;;8.89;100.00;100354.92;219633;1268;140164;-90
2024/02/03 19:17:12;;;;;;;9.90;4.30;;;;;;;8.87;100.00;100365.33;219826;1270;139593;-92
2024/02/03 19:22:18;;;;;;;7.10;3.40;;;;;;;8.84;100.00;100371.08;219845;1264;140128;-91
2024/02/03 19:27:18;;;;;;;8.00;3.70;;;;;;;8.82;100.00;100372.91;220227;1269;139946;-91
2024/02/03 19:32:19;;;;;;;7.90;3.70;;;;;;;8.81;100.00;100376.66;219588;1264;140312;-91
2024/02/03 19:37:19;;;;;;;13.40;6.10;;;;;;;8.81;100.00;100374.23;220161;1264;139707;-92
2024/02/03 19:42:20;;;;;;;10.00;4.20;;;;;;;8.81;100.00;100384.89;219436;1273;142446;-93
2024/02/03 19:47:20;;;;;;;11.60;4.60;;;;;;;8.78;100.00;100397.23;219583;1270;138773;-91
2024/02/03 19:52:21;;;;;;;11.70;4.50;;;;;;;8.77;100.00;100405.99;219548;1269;140361;-93
2024/02/03 19:57:21;;;;;;;10.50;4.40;;;;;;;8.78;100.00;100405.14;219823;1267;139451;-93
2024/02/03 20:02:22;;;;;;;7.10;3.40;;;;;;;8.79;100.00;100397.56;219558;1264;140263;-92
2024/02/03 20:07:22;;;;;;;10.40;4.00;;;;;;;8.78;100.00;100393.86;220312;1269;139219;-90
2024/02/03 20:12:23;;;;;;;9.90;4.60;;;;;;;8.76;100.00;100392.71;219357;1264;141114;-88
2024/02/03 20:17:23;;;;;;;10.30;5.00;;;;;;;8.73;100.00;100394.08;219673;1267;139075;-86
2024/02/03 20:22:24;;;;;;;9.90;4.30;;;;;;;8.67;100.00;100393.10;219976;1268;140586;-88
2024/02/03 20:27:24;;;;;;;8.50;3.70;;;;;;;8.60;100.00;100399.72;220318;1266;138429;-88
2024/02/03 20:32:25;;;;;;;13.30;3.40;;;;;;;8.51;100.00;100403.94;219533;1264;140466;-86
2024/02/03 20:37:25;;;;;;;8.80;3.20;;;;;;;8.42;100.00;100399.14;220375;1264;139054;-87
2024/02/03 20:42:29;;;;;;;8.90;2.70;;;;;;;8.32;100.00;100400.50;219180;1269;140599;-88
2024/02/03 20:47:29;;;;;;;7.60;3.30;;;;;;;8.22;100.00;100398.83;219887;1264;138800;-88
2024/02/03 20:52:30;;;;;;;8.50;3.10;;;;;;;8.13;100.00;100397.21;219471;1267;139934;-87
2024/02/03 20:57:30;;;;;;;10.50;3.30;;;;;;;8.04;100.00;100393.66;219849;1267;139215;-87
2024/02/03 21:02:31;;;;;;;9.10;3.00;;;;;;;7.95;100.00;100383.84;219404;1264;141042;-90
2024/02/03 21:07:32;;;;;;;13.00;3.60;;;;;;;7.87;100.00;100379.77;219753;1269;139198;-88
2024/02/03 21:12:32;;;;;;;8.20;2.80;;;;;;;7.79;100.00;100370.20;219340;1267;139805;-88
2024/02/03 21:17:33;;;;;;;16.30;5.00;;;;;;;7.71;100.00;100372.35;219738;1267;138652;-87
2024/02/03 21:22:33;;;;;;;16.10;5.00;;;;;;;7.65;100.00;100364.56;219197;1267;140013;-88
2024/02/03 21:27:34;;;;;;;23.20;8.60;;;;;;;7.57;100.00;100376.75;219514;1264;139725;-89
2024/02/03 21:32:35;;;;;;;21.80;7.50;;;;;;;7.50;100.00;100390.22;218901;1264;139741;-87
2024/02/03 21:37:35;;;;;;;15.30;6.00;;;;;;;7.44;100.00;100386.55;219978;1267;139386;-87
2024/02/03 21:42:36;;;;;;;12.40;4.70;;;;;;;7.38;100.00;100384.30;219146;1264;140235;-87
2024/02/03 21:47:36;;;;;;;10.90;4.20;;;;;;;7.34;100.00;100380.54;219888;1264;139200;-87
2024/02/03 21:52:38;;;;;;;11.00;4.20;;;;;;;7.36;100.00;100373.06;219487;1269;140142;-86
2024/02/03 21:57:39;;;;;;;11.10;3.40;;;;;;;7.39;100.00;100362.35;220147;1264;138696;-83
2024/02/03 22:02:42;;;;;;;9.40;3.50;;;;;;;7.44;100.00;100355.73;219461;1264;139785;-87
2024/02/03 22:07:42;;;;;;;10.80;3.30;;;;;;;7.49;100.00;100349.67;220138;1269;139761;-88
2024/02/03 22:12:43;;;;;;;10.70;3.50;;;;;;;7.53;100.00;100347.63;219747;1264;140153;-93
2024/02/03 22:17:43;;;;;;;10.60;3.00;;;;;;;7.57;100.00;100350.02;220114;1264;138858;-88
2024/02/03 22:22:43;;;;;;;13.40;3.70;;;;;;;7.61;100.00;100347.91;219536;1265;140054;-87
2024/02/03 22:27:44;;;;;;;10.20;2.90;;;;;;;7.64;100.00;100343.73;219392;1264;416087;-89
2024/02/03 22:32:45;;;;;;;18.40;3.80;;;;;;;7.66;100.00;100348.77;219573;1264;140145;-86
2024/02/03 22:37:46;;;;;;;10.10;2.90;;;;;;;7.64;100.00;100352.18;220517;1264;138762;-89